sensor_id;sensor_type;location;lat;lon;timestamp;P1;durP1;ratioP1;P2;durP2;ratioP2
7116;SDS011;3600;48.568;7.870;2022-10-16T00:01:17;2.10;;;1.38;;
7116;SDS011;3600;48.568;7.870;2022-10-16T00:03:46;1.40;;;1.30;;
7116;SDS011;3600;48.568;7.870;2022-10-16T00:06:13;1.50;;;1.20;;
7116;SDS011;3600;48.568;7.870;2022-10-16T00:08:41;1.80;;;1.20;;
7116;SDS011;3600;48.568;7.870;2022-10-16T00:11:10;1.80;;;1.50;;
7116;SDS011;3600;48.568;7.870;2022-10-16T00:13:39;1.98;;;1.38;;
7116;SDS011;3600;48.568;7.870;2022-10-16T00:16:07;2.60;;;1.40;;
7116;SDS011;3600;48.568;7.870;2022-10-16T00:18:35;1.73;;;1.60;;
7116;SDS011;3600;48.568;7.870;2022-10-16T00:21:10;3.60;;;1.50;;
7116;SDS011;3600;48.568;7.870;2022-10-16T00:23:45;1.75;;;1.40;;
7116;SDS011;3600;48.568;7.870;2022-10-16T00:26:13;1.20;;;1.10;;
7116;SDS011;3600;48.568;7.870;2022-10-16T00:28:42;2.17;;;1.50;;
7116;SDS011;3600;48.568;7.870;2022-10-16T00:31:11;2.92;;;1.52;;
7116;SDS011;3600;48.568;7.870;2022-10-16T00:33:38;3.05;;;1.90;;
7116;SDS011;3600;48.568;7.870;2022-10-16T00:36:07;1.50;;;1.40;;
7116;SDS011;3600;48.568;7.870;2022-10-16T00:38:36;1.85;;;1.50;;
7116;SDS011;3600;48.568;7.870;2022-10-16T00:41:04;2.22;;;1.50;;
7116;SDS011;3600;48.568;7.870;2022-10-16T00:46:15;2.15;;;1.40;;
7116;SDS011;3600;48.568;7.870;2022-10-16T00:48:46;1.70;;;1.60;;
7116;SDS011;3600;48.568;7.870;2022-10-16T00:51:34;1.30;;;1.20;;
7116;SDS011;3600;48.568;7.870;2022-10-16T00:54:28;1.92;;;1.65;;
7116;SDS011;3600;48.568;7.870;2022-10-16T00:56:58;3.42;;;1.88;;
7116;SDS011;3600;48.568;7.870;2022-10-16T00:59:29;3.08;;;1.58;;
7116;SDS011;3600;48.568;7.870;2022-10-16T01:01:59;3.80;;;1.30;;
7116;SDS011;3600;48.568;7.870;2022-10-16T01:04:26;4.68;;;1.90;;
7116;SDS011;3600;48.568;7.870;2022-10-16T01:10:23;1.73;;;1.35;;
7116;SDS011;3600;48.568;7.870;2022-10-16T01:12:33;2.47;;;1.60;;
7116;SDS011;3600;48.568;7.870;2022-10-16T01:17:43;2.78;;;1.58;;
7116;SDS011;3600;48.568;7.870;2022-10-16T01:20:27;2.72;;;1.65;;
7116;SDS011;3600;48.568;7.870;2022-10-16T01:29:39;1.80;;;1.50;;
7116;SDS011;3600;48.568;7.870;2022-10-16T01:32:54;2.78;;;1.80;;
7116;SDS011;3600;48.568;7.870;2022-10-16T01:40:46;2.63;;;1.50;;
7116;SDS011;3600;48.568;7.870;2022-10-16T01:43:20;1.40;;;1.30;;
7116;SDS011;3600;48.568;7.870;2022-10-16T01:45:50;1.45;;;1.38;;
7116;SDS011;3600;48.568;7.870;2022-10-16T01:48:18;2.13;;;1.90;;
7116;SDS011;3600;48.568;7.870;2022-10-16T01:50:58;1.90;;;1.65;;
7116;SDS011;3600;48.568;7.870;2022-10-16T01:53:29;1.67;;;1.58;;
7116;SDS011;3600;48.568;7.870;2022-10-16T01:55:57;2.20;;;1.48;;
7116;SDS011;3600;48.568;7.870;2022-10-16T01:58:25;1.95;;;1.67;;
7116;SDS011;3600;48.568;7.870;2022-10-16T02:00:53;2.97;;;1.60;;
7116;SDS011;3600;48.568;7.870;2022-10-16T02:03:21;1.70;;;1.60;;
7116;SDS011;3600;48.568;7.870;2022-10-16T02:05:53;1.70;;;1.60;;
7116;SDS011;3600;48.568;7.870;2022-10-16T02:08:22;1.77;;;1.63;;
7116;SDS011;3600;48.568;7.870;2022-10-16T02:10:51;2.25;;;1.55;;
7116;SDS011;3600;48.568;7.870;2022-10-16T02:13:19;2.15;;;1.38;;
7116;SDS011;3600;48.568;7.870;2022-10-16T02:15:51;1.85;;;1.63;;
7116;SDS011;3600;48.568;7.870;2022-10-16T02:18:18;4.18;;;1.77;;
7116;SDS011;3600;48.568;7.870;2022-10-16T02:20:49;3.80;;;1.63;;
7116;SDS011;3600;48.568;7.870;2022-10-16T02:26:29;3.50;;;2.10;;
7116;SDS011;3600;48.568;7.870;2022-10-16T02:29:02;1.88;;;1.77;;
7116;SDS011;3600;48.568;7.870;2022-10-16T02:31:34;3.40;;;2.10;;
7116;SDS011;3600;48.568;7.870;2022-10-16T02:34:03;2.15;;;1.67;;
7116;SDS011;3600;48.568;7.870;2022-10-16T02:36:32;3.30;;;1.80;;
7116;SDS011;3600;48.568;7.870;2022-10-16T02:39:01;2.22;;;2.03;;
7116;SDS011;3600;48.568;7.870;2022-10-16T02:41:30;2.45;;;2.25;;
7116;SDS011;3600;48.568;7.870;2022-10-16T02:43:57;6.20;;;2.40;;
7116;SDS011;3600;48.568;7.870;2022-10-16T02:46:24;3.55;;;2.10;;
7116;SDS011;3600;48.568;7.870;2022-10-16T02:48:51;1.98;;;1.88;;
7116;SDS011;3600;48.568;7.870;2022-10-16T02:51:18;2.10;;;1.67;;
7116;SDS011;3600;48.568;7.870;2022-10-16T02:53:44;2.15;;;1.95;;
7116;SDS011;3600;48.568;7.870;2022-10-16T02:56:11;1.92;;;1.83;;
7116;SDS011;3600;48.568;7.870;2022-10-16T02:58:38;2.35;;;1.90;;
7116;SDS011;3600;48.568;7.870;2022-10-16T03:01:05;6.30;;;2.10;;
7116;SDS011;3600;48.568;7.870;2022-10-16T03:03:31;4.47;;;2.17;;
7116;SDS011;3600;48.568;7.870;2022-10-16T03:05:58;2.25;;;2.05;;
7116;SDS011;3600;48.568;7.870;2022-10-16T03:08:25;2.50;;;2.30;;
7116;SDS011;3600;48.568;7.870;2022-10-16T03:10:52;2.58;;;2.00;;
7116;SDS011;3600;48.568;7.870;2022-10-16T03:13:19;3.55;;;2.17;;
7116;SDS011;3600;48.568;7.870;2022-10-16T03:15:46;3.67;;;2.38;;
7116;SDS011;3600;48.568;7.870;2022-10-16T03:18:13;2.30;;;2.10;;
7116;SDS011;3600;48.568;7.870;2022-10-16T03:20:40;2.40;;;2.20;;
7116;SDS011;3600;48.568;7.870;2022-10-16T03:23:08;2.45;;;2.22;;
7116;SDS011;3600;48.568;7.870;2022-10-16T03:25:35;3.40;;;1.88;;
7116;SDS011;3600;48.568;7.870;2022-10-16T03:28:02;2.65;;;2.40;;
7116;SDS011;3600;48.568;7.870;2022-10-16T03:30:29;2.67;;;2.47;;
7116;SDS011;3600;48.568;7.870;2022-10-16T03:32:56;4.45;;;2.25;;
7116;SDS011;3600;48.568;7.870;2022-10-16T03:35:23;3.83;;;2.30;;
7116;SDS011;3600;48.568;7.870;2022-10-16T03:37:50;3.20;;;2.97;;
7116;SDS011;3600;48.568;7.870;2022-10-16T03:40:17;3.97;;;2.10;;
7116;SDS011;3600;48.568;7.870;2022-10-16T03:42:44;2.97;;;2.28;;
7116;SDS011;3600;48.568;7.870;2022-10-16T03:45:11;4.35;;;2.28;;
7116;SDS011;3600;48.568;7.870;2022-10-16T03:47:38;2.22;;;1.85;;
7116;SDS011;3600;48.568;7.870;2022-10-16T03:50:04;3.38;;;2.30;;
7116;SDS011;3600;48.568;7.870;2022-10-16T03:52:32;4.68;;;2.30;;
7116;SDS011;3600;48.568;7.870;2022-10-16T03:54:59;4.88;;;2.20;;
7116;SDS011;3600;48.568;7.870;2022-10-16T03:57:25;2.92;;;2.05;;
7116;SDS011;3600;48.568;7.870;2022-10-16T03:59:53;2.42;;;2.10;;
7116;SDS011;3600;48.568;7.870;2022-10-16T04:02:19;3.80;;;2.25;;
7116;SDS011;3600;48.568;7.870;2022-10-16T04:04:46;2.72;;;2.00;;
7116;SDS011;3600;48.568;7.870;2022-10-16T04:07:13;2.65;;;2.45;;
7116;SDS011;3600;48.568;7.870;2022-10-16T04:09:40;3.78;;;2.17;;
7116;SDS011;3600;48.568;7.870;2022-10-16T04:12:06;5.45;;;2.13;;
7116;SDS011;3600;48.568;7.870;2022-10-16T04:14:33;3.50;;;2.33;;
7116;SDS011;3600;48.568;7.870;2022-10-16T04:17:00;2.70;;;2.50;;
7116;SDS011;3600;48.568;7.870;2022-10-16T04:19:27;3.17;;;2.20;;
7116;SDS011;3600;48.568;7.870;2022-10-16T04:21:53;3.50;;;2.38;;
7116;SDS011;3600;48.568;7.870;2022-10-16T04:24:20;3.47;;;2.42;;
7116;SDS011;3600;48.568;7.870;2022-10-16T04:26:47;5.45;;;2.75;;
7116;SDS011;3600;48.568;7.870;2022-10-16T04:29:13;3.22;;;2.35;;
7116;SDS011;3600;48.568;7.870;2022-10-16T04:31:40;2.97;;;2.15;;
7116;SDS011;3600;48.568;7.870;2022-10-16T04:34:07;2.90;;;2.35;;
7116;SDS011;3600;48.568;7.870;2022-10-16T04:36:34;2.80;;;2.30;;
7116;SDS011;3600;48.568;7.870;2022-10-16T04:39:00;5.45;;;2.90;;
7116;SDS011;3600;48.568;7.870;2022-10-16T04:41:27;2.45;;;2.25;;
7116;SDS011;3600;48.568;7.870;2022-10-16T04:43:54;3.72;;;2.40;;
7116;SDS011;3600;48.568;7.870;2022-10-16T04:46:21;3.22;;;2.10;;
7116;SDS011;3600;48.568;7.870;2022-10-16T04:48:48;2.35;;;2.15;;
7116;SDS011;3600;48.568;7.870;2022-10-16T04:51:14;2.67;;;2.40;;
7116;SDS011;3600;48.568;7.870;2022-10-16T04:53:41;4.95;;;2.67;;
7116;SDS011;3600;48.568;7.870;2022-10-16T04:56:08;5.80;;;2.78;;
7116;SDS011;3600;48.568;7.870;2022-10-16T04:58:34;2.42;;;2.08;;
7116;SDS011;3600;48.568;7.870;2022-10-16T05:01:01;3.00;;;2.35;;
7116;SDS011;3600;48.568;7.870;2022-10-16T05:03:28;5.22;;;2.35;;
7116;SDS011;3600;48.568;7.870;2022-10-16T05:05:56;2.92;;;2.40;;
7116;SDS011;3600;48.568;7.870;2022-10-16T05:08:23;2.88;;;2.40;;
7116;SDS011;3600;48.568;7.870;2022-10-16T05:10:50;4.75;;;2.20;;
7116;SDS011;3600;48.568;7.870;2022-10-16T05:13:16;2.75;;;2.28;;
7116;SDS011;3600;48.568;7.870;2022-10-16T05:15:46;4.72;;;2.50;;
7116;SDS011;3600;48.568;7.870;2022-10-16T05:18:14;2.70;;;2.38;;
7116;SDS011;3600;48.568;7.870;2022-10-16T05:20:41;2.90;;;2.03;;
7116;SDS011;3600;48.568;7.870;2022-10-16T05:23:08;2.67;;;2.17;;
7116;SDS011;3600;48.568;7.870;2022-10-16T05:25:38;4.35;;;2.50;;
7116;SDS011;3600;48.568;7.870;2022-10-16T05:28:05;2.78;;;2.42;;
7116;SDS011;3600;48.568;7.870;2022-10-16T05:30:32;5.03;;;3.47;;
7116;SDS011;3600;48.568;7.870;2022-10-16T05:32:59;2.95;;;2.70;;
7116;SDS011;3600;48.568;7.870;2022-10-16T05:35:25;5.15;;;3.28;;
7116;SDS011;3600;48.568;7.870;2022-10-16T05:37:52;4.18;;;2.55;;
7116;SDS011;3600;48.568;7.870;2022-10-16T05:40:19;5.63;;;2.65;;
7116;SDS011;3600;48.568;7.870;2022-10-16T05:42:46;3.40;;;2.38;;
7116;SDS011;3600;48.568;7.870;2022-10-16T05:45:13;3.92;;;2.88;;
7116;SDS011;3600;48.568;7.870;2022-10-16T05:47:39;3.97;;;2.72;;
7116;SDS011;3600;48.568;7.870;2022-10-16T05:50:06;2.30;;;2.20;;
7116;SDS011;3600;48.568;7.870;2022-10-16T05:52:33;4.88;;;2.50;;
7116;SDS011;3600;48.568;7.870;2022-10-16T05:55:00;2.88;;;2.60;;
7116;SDS011;3600;48.568;7.870;2022-10-16T05:57:27;4.40;;;2.42;;
7116;SDS011;3600;48.568;7.870;2022-10-16T05:59:54;3.13;;;2.67;;
7116;SDS011;3600;48.568;7.870;2022-10-16T06:02:21;2.70;;;2.10;;
7116;SDS011;3600;48.568;7.870;2022-10-16T06:04:48;3.55;;;2.38;;
7116;SDS011;3600;48.568;7.870;2022-10-16T06:07:14;3.75;;;2.85;;
7116;SDS011;3600;48.568;7.870;2022-10-16T06:09:41;3.80;;;2.25;;
7116;SDS011;3600;48.568;7.870;2022-10-16T06:12:08;2.53;;;2.33;;
7116;SDS011;3600;48.568;7.870;2022-10-16T06:14:35;2.83;;;2.40;;
7116;SDS011;3600;48.568;7.870;2022-10-16T06:17:01;2.30;;;2.10;;
7116;SDS011;3600;48.568;7.870;2022-10-16T06:19:28;2.95;;;2.25;;
7116;SDS011;3600;48.568;7.870;2022-10-16T06:21:55;2.72;;;2.05;;
7116;SDS011;3600;48.568;7.870;2022-10-16T06:24:24;2.33;;;2.15;;
7116;SDS011;3600;48.568;7.870;2022-10-16T06:26:51;5.68;;;2.30;;
7116;SDS011;3600;48.568;7.870;2022-10-16T06:29:18;2.30;;;2.10;;
7116;SDS011;3600;48.568;7.870;2022-10-16T06:31:44;2.20;;;2.10;;
7116;SDS011;3600;48.568;7.870;2022-10-16T06:34:11;3.03;;;1.90;;
7116;SDS011;3600;48.568;7.870;2022-10-16T06:36:38;2.55;;;2.35;;
7116;SDS011;3600;48.568;7.870;2022-10-16T06:39:05;5.00;;;2.20;;
7116;SDS011;3600;48.568;7.870;2022-10-16T06:41:33;3.97;;;2.08;;
7116;SDS011;3600;48.568;7.870;2022-10-16T06:44:01;3.22;;;2.15;;
7116;SDS011;3600;48.568;7.870;2022-10-16T06:46:31;4.60;;;2.75;;
7116;SDS011;3600;48.568;7.870;2022-10-16T06:48:57;2.13;;;1.95;;
7116;SDS011;3600;48.568;7.870;2022-10-16T06:51:24;2.38;;;2.03;;
7116;SDS011;3600;48.568;7.870;2022-10-16T06:53:52;2.22;;;1.98;;
7116;SDS011;3600;48.568;7.870;2022-10-16T06:56:29;3.83;;;2.22;;
7116;SDS011;3600;48.568;7.870;2022-10-16T06:58:59;2.10;;;2.00;;
7116;SDS011;3600;48.568;7.870;2022-10-16T07:01:26;2.22;;;2.03;;
7116;SDS011;3600;48.568;7.870;2022-10-16T07:03:53;4.30;;;2.20;;
7116;SDS011;3600;48.568;7.870;2022-10-16T07:06:21;3.30;;;2.25;;
7116;SDS011;3600;48.568;7.870;2022-10-16T07:08:49;2.00;;;1.90;;
7116;SDS011;3600;48.568;7.870;2022-10-16T07:11:18;2.20;;;2.03;;
7116;SDS011;3600;48.568;7.870;2022-10-16T07:13:48;2.17;;;2.03;;
7116;SDS011;3600;48.568;7.870;2022-10-16T07:16:22;2.90;;;1.83;;
7116;SDS011;3600;48.568;7.870;2022-10-16T07:18:54;2.38;;;2.17;;
7116;SDS011;3600;48.568;7.870;2022-10-16T07:21:26;3.95;;;2.25;;
7116;SDS011;3600;48.568;7.870;2022-10-16T07:23:58;4.50;;;2.08;;
7116;SDS011;3600;48.568;7.870;2022-10-16T07:26:28;3.45;;;1.92;;
7116;SDS011;3600;48.568;7.870;2022-10-16T07:28:56;2.25;;;2.05;;
7116;SDS011;3600;48.568;7.870;2022-10-16T07:31:23;2.20;;;1.88;;
7116;SDS011;3600;48.568;7.870;2022-10-16T07:33:50;2.60;;;2.10;;
7116;SDS011;3600;48.568;7.870;2022-10-16T07:36:18;3.97;;;2.17;;
7116;SDS011;3600;48.568;7.870;2022-10-16T07:38:46;3.00;;;2.08;;
7116;SDS011;3600;48.568;7.870;2022-10-16T07:41:14;2.15;;;2.03;;
7116;SDS011;3600;48.568;7.870;2022-10-16T07:43:50;4.07;;;2.25;;
7116;SDS011;3600;48.568;7.870;2022-10-16T07:46:19;2.95;;;2.38;;
7116;SDS011;3600;48.568;7.870;2022-10-16T07:48:47;2.17;;;2.00;;
7116;SDS011;3600;48.568;7.870;2022-10-16T07:51:15;6.22;;;2.35;;
7116;SDS011;3600;48.568;7.870;2022-10-16T07:53:44;3.22;;;2.20;;
7116;SDS011;3600;48.568;7.870;2022-10-16T07:56:11;10.52;;;2.10;;
7116;SDS011;3600;48.568;7.870;2022-10-16T07:58:38;2.05;;;1.95;;
7116;SDS011;3600;48.568;7.870;2022-10-16T08:01:09;5.50;;;2.55;;
7116;SDS011;3600;48.568;7.870;2022-10-16T08:03:37;2.45;;;2.25;;
7116;SDS011;3600;48.568;7.870;2022-10-16T08:06:04;2.67;;;2.28;;
7116;SDS011;3600;48.568;7.870;2022-10-16T08:08:31;3.17;;;2.15;;
7116;SDS011;3600;48.568;7.870;2022-10-16T08:10:58;3.10;;;2.08;;
7116;SDS011;3600;48.568;7.870;2022-10-16T08:13:25;2.33;;;2.13;;
7116;SDS011;3600;48.568;7.870;2022-10-16T08:15:53;3.05;;;2.05;;
7116;SDS011;3600;48.568;7.870;2022-10-16T08:18:20;3.95;;;2.58;;
7116;SDS011;3600;48.568;7.870;2022-10-16T08:20:47;2.45;;;2.10;;
7116;SDS011;3600;48.568;7.870;2022-10-16T08:23:13;4.57;;;2.05;;
7116;SDS011;3600;48.568;7.870;2022-10-16T08:25:41;6.93;;;1.92;;
7116;SDS011;3600;48.568;7.870;2022-10-16T08:28:08;3.05;;;2.15;;
7116;SDS011;3600;48.568;7.870;2022-10-16T08:30:36;2.88;;;2.20;;
7116;SDS011;3600;48.568;7.870;2022-10-16T08:33:03;2.63;;;2.30;;
7116;SDS011;3600;48.568;7.870;2022-10-16T08:35:32;5.47;;;2.08;;
7116;SDS011;3600;48.568;7.870;2022-10-16T08:37:58;4.63;;;1.95;;
7116;SDS011;3600;48.568;7.870;2022-10-16T08:40:26;3.38;;;2.25;;
7116;SDS011;3600;48.568;7.870;2022-10-16T08:48:56;2.33;;;2.08;;
7116;SDS011;3600;48.568;7.870;2022-10-16T08:51:26;3.22;;;2.30;;
7116;SDS011;3600;48.568;7.870;2022-10-16T08:54:04;4.72;;;2.10;;
7116;SDS011;3600;48.568;7.870;2022-10-16T08:56:37;2.45;;;1.95;;
7116;SDS011;3600;48.568;7.870;2022-10-16T08:59:04;3.78;;;2.10;;
7116;SDS011;3600;48.568;7.870;2022-10-16T09:01:40;2.65;;;2.10;;
7116;SDS011;3600;48.568;7.870;2022-10-16T09:04:27;4.57;;;2.08;;
7116;SDS011;3600;48.568;7.870;2022-10-16T09:07:31;4.97;;;2.50;;
7116;SDS011;3600;48.568;7.870;2022-10-16T09:10:11;3.38;;;2.17;;
7116;SDS011;3600;48.568;7.870;2022-10-16T09:12:46;2.47;;;1.95;;
7116;SDS011;3600;48.568;7.870;2022-10-16T09:21:09;5.78;;;2.60;;
7116;SDS011;3600;48.568;7.870;2022-10-16T09:23:49;2.20;;;2.00;;
7116;SDS011;3600;48.568;7.870;2022-10-16T09:26:16;1.98;;;1.88;;
7116;SDS011;3600;48.568;7.870;2022-10-16T09:28:45;4.70;;;2.17;;
7116;SDS011;3600;48.568;7.870;2022-10-16T09:31:15;3.33;;;2.30;;
7116;SDS011;3600;48.568;7.870;2022-10-16T09:33:48;3.08;;;2.05;;
7116;SDS011;3600;48.568;7.870;2022-10-16T09:36:23;2.08;;;1.88;;
7116;SDS011;3600;48.568;7.870;2022-10-16T09:39:05;4.03;;;2.10;;
7116;SDS011;3600;48.568;7.870;2022-10-16T09:41:37;2.22;;;1.90;;
7116;SDS011;3600;48.568;7.870;2022-10-16T09:44:28;4.18;;;2.00;;
7116;SDS011;3600;48.568;7.870;2022-10-16T09:47:04;4.22;;;2.30;;
7116;SDS011;3600;48.568;7.870;2022-10-16T09:49:38;3.63;;;2.35;;
7116;SDS011;3600;48.568;7.870;2022-10-16T09:52:14;3.47;;;1.92;;
7116;SDS011;3600;48.568;7.870;2022-10-16T09:54:49;4.50;;;2.10;;
7116;SDS011;3600;48.568;7.870;2022-10-16T09:57:22;2.47;;;1.90;;
7116;SDS011;3600;48.568;7.870;2022-10-16T09:59:51;3.47;;;2.13;;
7116;SDS011;3600;48.568;7.870;2022-10-16T10:02:29;1.40;;;1.30;;
7116;SDS011;3600;48.568;7.870;2022-10-16T10:04:59;3.75;;;1.80;;
7116;SDS011;3600;48.568;7.870;2022-10-16T10:07:28;4.03;;;1.90;;
7116;SDS011;3600;48.568;7.870;2022-10-16T10:10:04;2.28;;;1.75;;
7116;SDS011;3600;48.568;7.870;2022-10-16T10:12:32;3.30;;;1.83;;
7116;SDS011;3600;48.568;7.870;2022-10-16T10:15:06;4.25;;;1.80;;
7116;SDS011;3600;48.568;7.870;2022-10-16T10:17:46;1.83;;;1.73;;
7116;SDS011;3600;48.568;7.870;2022-10-16T10:20:21;2.30;;;2.10;;
7116;SDS011;3600;48.568;7.870;2022-10-16T10:22:57;3.35;;;1.80;;
7116;SDS011;3600;48.568;7.870;2022-10-16T10:33:37;4.00;;;2.17;;
7116;SDS011;3600;48.568;7.870;2022-10-16T10:36:37;4.88;;;2.22;;
7116;SDS011;3600;48.568;7.870;2022-10-16T10:39:31;7.40;;;2.63;;
7116;SDS011;3600;48.568;7.870;2022-10-16T11:01:10;2.08;;;1.90;;
7116;SDS011;3600;48.568;7.870;2022-10-16T11:06:29;3.67;;;1.63;;
7116;SDS011;3600;48.568;7.870;2022-10-16T11:09:18;2.03;;;1.92;;
7116;SDS011;3600;48.568;7.870;2022-10-16T11:11:54;1.67;;;1.58;;
7116;SDS011;3600;48.568;7.870;2022-10-16T11:14:29;3.00;;;2.10;;
7116;SDS011;3600;48.568;7.870;2022-10-16T11:17:28;2.75;;;2.17;;
7116;SDS011;3600;48.568;7.870;2022-10-16T11:20:16;2.17;;;1.75;;
7116;SDS011;3600;48.568;7.870;2022-10-16T11:22:56;2.95;;;2.05;;
7116;SDS011;3600;48.568;7.870;2022-10-16T11:28:10;2.60;;;2.40;;
7116;SDS011;3600;48.568;7.870;2022-10-16T11:30:48;2.78;;;2.22;;
7116;SDS011;3600;48.568;7.870;2022-10-16T11:36:14;4.47;;;3.00;;
7116;SDS011;3600;48.568;7.870;2022-10-16T11:39:00;3.67;;;2.80;;
7116;SDS011;3600;48.568;7.870;2022-10-16T11:41:34;3.67;;;2.13;;
7116;SDS011;3600;48.568;7.870;2022-10-16T11:47:05;3.53;;;3.20;;
7116;SDS011;3600;48.568;7.870;2022-10-16T11:55:42;10.43;;;9.18;;
7116;SDS011;3600;48.568;7.870;2022-10-16T12:01:14;6.60;;;4.18;;
7116;SDS011;3600;48.568;7.870;2022-10-16T12:06:48;7.43;;;6.05;;
7116;SDS011;3600;48.568;7.870;2022-10-16T12:11:56;10.95;;;6.90;;
7116;SDS011;3600;48.568;7.870;2022-10-16T12:20:18;7.13;;;4.80;;
7116;SDS011;3600;48.568;7.870;2022-10-16T12:22:59;4.30;;;3.88;;
7116;SDS011;3600;48.568;7.870;2022-10-16T12:25:31;4.65;;;2.83;;
7116;SDS011;3600;48.568;7.870;2022-10-16T12:28:00;3.40;;;3.10;;
7116;SDS011;3600;48.568;7.870;2022-10-16T12:30:30;6.28;;;4.82;;
7116;SDS011;3600;48.568;7.870;2022-10-16T12:33:02;2.90;;;2.60;;
7116;SDS011;3600;48.568;7.870;2022-10-16T12:35:32;6.25;;;3.40;;
7116;SDS011;3600;48.568;7.870;2022-10-16T12:38:08;7.57;;;4.25;;
7116;SDS011;3600;48.568;7.870;2022-10-16T12:40:44;7.03;;;4.15;;
7116;SDS011;3600;48.568;7.870;2022-10-16T12:48:32;3.17;;;2.55;;
7116;SDS011;3600;48.568;7.870;2022-10-16T13:24:20;1.80;;;1.70;;
7116;SDS011;3600;48.568;7.870;2022-10-16T13:26:56;2.95;;;2.10;;
7116;SDS011;3600;48.568;7.870;2022-10-16T13:29:30;2.00;;;1.23;;
7116;SDS011;3600;48.568;7.870;2022-10-16T13:31:59;4.75;;;1.92;;
7116;SDS011;3600;48.568;7.870;2022-10-16T13:34:27;2.42;;;1.50;;
7116;SDS011;3600;48.568;7.870;2022-10-16T13:36:55;2.53;;;1.77;;
7116;SDS011;3600;48.568;7.870;2022-10-16T13:39:23;3.17;;;1.60;;
7116;SDS011;3600;48.568;7.870;2022-10-16T13:44:53;1.63;;;1.52;;
7116;SDS011;3600;48.568;7.870;2022-10-16T13:47:22;1.80;;;1.70;;
7116;SDS011;3600;48.568;7.870;2022-10-16T13:52:32;1.90;;;1.77;;
7116;SDS011;3600;48.568;7.870;2022-10-16T13:54:59;4.28;;;1.90;;
7116;SDS011;3600;48.568;7.870;2022-10-16T13:57:27;2.80;;;1.60;;
7116;SDS011;3600;48.568;7.870;2022-10-16T13:59:54;2.28;;;2.05;;
7116;SDS011;3600;48.568;7.870;2022-10-16T14:04:55;6.13;;;2.60;;
7116;SDS011;3600;48.568;7.870;2022-10-16T14:07:27;2.20;;;1.80;;
7116;SDS011;3600;48.568;7.870;2022-10-16T14:10:01;3.60;;;2.10;;
7116;SDS011;3600;48.568;7.870;2022-10-16T14:12:31;3.45;;;2.25;;
7116;SDS011;3600;48.568;7.870;2022-10-16T14:14:58;3.05;;;1.63;;
7116;SDS011;3600;48.568;7.870;2022-10-16T14:19:59;1.75;;;1.65;;
7116;SDS011;3600;48.568;7.870;2022-10-16T14:22:40;2.95;;;1.98;;
7116;SDS011;3600;48.568;7.870;2022-10-16T14:28:01;2.65;;;2.13;;
7116;SDS011;3600;48.568;7.870;2022-10-16T14:30:30;4.47;;;1.60;;
7116;SDS011;3600;48.568;7.870;2022-10-16T14:33:01;1.83;;;1.63;;
7116;SDS011;3600;48.568;7.870;2022-10-16T14:35:38;1.88;;;1.73;;
7116;SDS011;3600;48.568;7.870;2022-10-16T14:38:06;1.73;;;1.60;;
7116;SDS011;3600;48.568;7.870;2022-10-16T14:40:48;2.75;;;1.63;;
7116;SDS011;3600;48.568;7.870;2022-10-16T14:43:23;2.00;;;1.80;;
7116;SDS011;3600;48.568;7.870;2022-10-16T14:45:57;2.17;;;1.88;;
7116;SDS011;3600;48.568;7.870;2022-10-16T14:48:24;2.70;;;2.17;;
7116;SDS011;3600;48.568;7.870;2022-10-16T14:50:51;2.97;;;1.58;;
7116;SDS011;3600;48.568;7.870;2022-10-16T14:53:18;2.50;;;1.70;;
7116;SDS011;3600;48.568;7.870;2022-10-16T14:55:44;4.65;;;2.22;;
7116;SDS011;3600;48.568;7.870;2022-10-16T14:58:15;2.85;;;1.98;;
7116;SDS011;3600;48.568;7.870;2022-10-16T15:00:45;2.55;;;1.90;;
7116;SDS011;3600;48.568;7.870;2022-10-16T15:03:12;4.40;;;2.05;;
7116;SDS011;3600;48.568;7.870;2022-10-16T15:05:39;3.58;;;1.92;;
7116;SDS011;3600;48.568;7.870;2022-10-16T15:08:06;1.98;;;1.55;;
7116;SDS011;3600;48.568;7.870;2022-10-16T15:10:42;1.88;;;1.67;;
7116;SDS011;3600;48.568;7.870;2022-10-16T15:13:13;4.22;;;2.10;;
7116;SDS011;3600;48.568;7.870;2022-10-16T15:15:42;1.90;;;1.80;;
7116;SDS011;3600;48.568;7.870;2022-10-16T15:18:10;2.17;;;2.08;;
7116;SDS011;3600;48.568;7.870;2022-10-16T15:20:37;2.45;;;2.00;;
7116;SDS011;3600;48.568;7.870;2022-10-16T15:23:06;2.58;;;1.88;;
7116;SDS011;3600;48.568;7.870;2022-10-16T15:25:45;3.38;;;1.92;;
7116;SDS011;3600;48.568;7.870;2022-10-16T15:28:13;1.67;;;1.58;;
7116;SDS011;3600;48.568;7.870;2022-10-16T15:30:41;3.40;;;1.60;;
7116;SDS011;3600;48.568;7.870;2022-10-16T15:33:12;2.28;;;2.10;;
7116;SDS011;3600;48.568;7.870;2022-10-16T15:35:48;4.63;;;1.75;;
7116;SDS011;3600;48.568;7.870;2022-10-16T15:38:16;2.10;;;2.00;;
7116;SDS011;3600;48.568;7.870;2022-10-16T15:40:44;4.18;;;1.77;;
7116;SDS011;3600;48.568;7.870;2022-10-16T15:43:12;2.67;;;2.17;;
7116;SDS011;3600;48.568;7.870;2022-10-16T15:45:39;1.95;;;1.85;;
7116;SDS011;3600;48.568;7.870;2022-10-16T15:48:08;1.60;;;1.50;;
7116;SDS011;3600;48.568;7.870;2022-10-16T15:50:38;5.68;;;2.08;;
7116;SDS011;3600;48.568;7.870;2022-10-16T15:53:05;2.38;;;1.90;;
7116;SDS011;3600;48.568;7.870;2022-10-16T15:55:32;1.77;;;1.67;;
7116;SDS011;3600;48.568;7.870;2022-10-16T15:58:00;2.63;;;2.03;;
7116;SDS011;3600;48.568;7.870;2022-10-16T16:00:26;4.10;;;2.30;;
7116;SDS011;3600;48.568;7.870;2022-10-16T16:02:53;4.00;;;2.28;;
7116;SDS011;3600;48.568;7.870;2022-10-16T16:05:21;2.60;;;1.55;;
7116;SDS011;3600;48.568;7.870;2022-10-16T16:07:48;2.80;;;1.80;;
7116;SDS011;3600;48.568;7.870;2022-10-16T16:10:16;2.75;;;2.22;;
7116;SDS011;3600;48.568;7.870;2022-10-16T16:12:45;3.67;;;2.17;;
7116;SDS011;3600;48.568;7.870;2022-10-16T16:15:18;2.63;;;2.22;;
7116;SDS011;3600;48.568;7.870;2022-10-16T16:17:46;4.35;;;2.50;;
7116;SDS011;3600;48.568;7.870;2022-10-16T16:20:14;3.47;;;2.30;;
7116;SDS011;3600;48.568;7.870;2022-10-16T16:22:41;2.38;;;2.15;;
7116;SDS011;3600;48.568;7.870;2022-10-16T16:25:08;3.00;;;2.35;;
7116;SDS011;3600;48.568;7.870;2022-10-16T16:27:35;2.30;;;2.20;;
7116;SDS011;3600;48.568;7.870;2022-10-16T16:30:05;3.45;;;2.50;;
7116;SDS011;3600;48.568;7.870;2022-10-16T16:32:34;2.55;;;2.28;;
7116;SDS011;3600;48.568;7.870;2022-10-16T16:35:01;4.57;;;2.38;;
7116;SDS011;3600;48.568;7.870;2022-10-16T16:37:29;3.47;;;2.47;;
7116;SDS011;3600;48.568;7.870;2022-10-16T16:39:56;2.20;;;2.00;;
7116;SDS011;3600;48.568;7.870;2022-10-16T16:42:27;3.88;;;2.50;;
7116;SDS011;3600;48.568;7.870;2022-10-16T16:44:54;3.05;;;2.28;;
7116;SDS011;3600;48.568;7.870;2022-10-16T16:47:21;6.18;;;4.18;;
7116;SDS011;3600;48.568;7.870;2022-10-16T16:49:48;46.13;;;25.35;;
7116;SDS011;3600;48.568;7.870;2022-10-16T16:52:15;26.33;;;14.30;;
7116;SDS011;3600;48.568;7.870;2022-10-16T16:54:41;24.75;;;12.77;;
7116;SDS011;3600;48.568;7.870;2022-10-16T16:57:10;12.50;;;7.47;;
7116;SDS011;3600;48.568;7.870;2022-10-16T16:59:36;9.93;;;5.97;;
7116;SDS011;3600;48.568;7.870;2022-10-16T17:02:03;6.65;;;3.38;;
7116;SDS011;3600;48.568;7.870;2022-10-16T17:04:30;3.35;;;3.03;;
7116;SDS011;3600;48.568;7.870;2022-10-16T17:06:57;4.13;;;3.30;;
7116;SDS011;3600;48.568;7.870;2022-10-16T17:09:24;5.22;;;3.47;;
7116;SDS011;3600;48.568;7.870;2022-10-16T17:11:50;4.40;;;3.00;;
7116;SDS011;3600;48.568;7.870;2022-10-16T17:14:17;9.55;;;4.53;;
7116;SDS011;3600;48.568;7.870;2022-10-16T17:16:44;3.17;;;2.88;;
7116;SDS011;3600;48.568;7.870;2022-10-16T17:19:13;4.05;;;3.42;;
7116;SDS011;3600;48.568;7.870;2022-10-16T17:21:41;5.82;;;4.60;;
7116;SDS011;3600;48.568;7.870;2022-10-16T17:24:08;7.40;;;4.60;;
7116;SDS011;3600;48.568;7.870;2022-10-16T17:26:36;5.65;;;4.22;;
7116;SDS011;3600;48.568;7.870;2022-10-16T17:29:05;4.63;;;4.07;;
7116;SDS011;3600;48.568;7.870;2022-10-16T17:31:33;8.05;;;4.80;;
7116;SDS011;3600;48.568;7.870;2022-10-16T17:34:02;6.15;;;5.40;;
7116;SDS011;3600;48.568;7.870;2022-10-16T17:36:32;8.20;;;5.70;;
7116;SDS011;3600;48.568;7.870;2022-10-16T17:39:03;8.07;;;6.45;;
7116;SDS011;3600;48.568;7.870;2022-10-16T17:41:31;9.27;;;5.35;;
7116;SDS011;3600;48.568;7.870;2022-10-16T17:43:58;9.38;;;5.90;;
7116;SDS011;3600;48.568;7.870;2022-10-16T17:46:25;7.05;;;5.18;;
7116;SDS011;3600;48.568;7.870;2022-10-16T17:48:55;9.85;;;5.43;;
7116;SDS011;3600;48.568;7.870;2022-10-16T17:51:23;6.95;;;5.20;;
7116;SDS011;3600;48.568;7.870;2022-10-16T17:53:53;8.93;;;5.22;;
7116;SDS011;3600;48.568;7.870;2022-10-16T17:56:22;8.35;;;4.97;;
7116;SDS011;3600;48.568;7.870;2022-10-16T17:58:53;7.55;;;5.57;;